Time;durP1;ratioP1;P1;durP2;ratioP2;P2;SDS_P1;SDS_P2;PMS_P1;PMS_P2;Temp;Humidity;BMP_temperature;BMP_pressure;BME280_temperature;BME280_humidity;BME280_pressure;Samples;Min_cycle;Max_cycle;Signal;HPM_P1;HPM_P2
2022/01/22 00:00:32;;;;;;;2.40;2.10;;;;;;;3.08;91.09;99828.09;4866614;29;20037;-85
2022/01/22 00:02:58;;;;;;;2.28;2.08;;;;;;;3.09;91.31;99827.09;4867990;29;20378;-84
2022/01/22 00:05:23;;;;;;;2.13;1.98;;;;;;;3.01;91.04;99812.97;4867271;29;20119;-84
2022/01/22 00:07:49;;;;;;;3.40;2.10;;;;;;;3.09;91.09;99830.56;4870407;29;20070;-84
2022/01/22 00:10:18;;;;;;;2.35;1.95;;;;;;;3.09;91.28;99827.09;4854899;29;20031;-85
2022/01/22 00:15:29;;;;;;;2.03;1.92;;;;;;;3.10;91.18;99831.38;4902389;29;20084;-86
2022/01/22 00:17:56;;;;;;;2.17;1.98;;;;;;;3.11;91.01;99830.38;4870729;29;20037;-85
2022/01/22 00:20:24;;;;;;;2.10;1.90;;;;;;;3.12;90.97;99818.84;4886137;29;20439;-86
2022/01/22 00:22:50;;;;;;;2.05;1.85;;;;;;;3.12;91.04;99829.38;4871303;29;20131;-85
2022/01/22 00:25:20;;;;;;;2.03;1.92;;;;;;;3.04;90.91;99806.53;4869786;29;20493;-83
2022/01/22 00:27:48;;;;;;;2.60;1.63;;;;;;;3.13;91.28;99831.00;4867451;29;20040;-84
2022/01/22 00:30:16;;;;;;;3.03;1.73;;;;;;;3.14;91.09;99843.22;4868136;29;20400;-83
2022/01/22 00:32:42;;;;;;;1.83;1.73;;;;;;;3.14;91.41;99846.69;4883907;29;20064;-83
2022/01/22 00:35:08;;;;;;;1.90;1.80;;;;;;;3.15;91.18;99847.47;4883660;29;20037;-84
2022/01/22 00:37:36;;;;;;;2.10;1.90;;;;;;;3.16;90.57;99846.50;4882456;29;20064;-84
2022/01/22 00:40:03;;;;;;;1.88;1.63;;;;;;;3.16;90.79;99860.50;4885807;29;20512;-84
2022/01/22 00:42:32;;;;;;;1.85;1.75;;;;;;;3.18;91.57;99849.78;4871462;29;20124;-83
2022/01/22 00:44:57;;;;;;;2.95;1.83;;;;;;;3.05;90.77;99837.19;4883206;29;20066;-84
2022/01/22 00:47:23;;;;;;;1.58;1.48;;;;;;;3.18;91.29;99855.06;4887219;29;20127;-83
2022/01/22 00:49:48;;;;;;;1.60;1.50;;;;;;;3.16;91.32;99846.50;4851555;29;20091;-83
2022/01/22 00:52:14;;;;;;;1.55;1.45;;;;;;;3.19;91.26;99860.13;4859704;29;20071;-84
2022/01/22 00:54:39;;;;;;;2.00;1.80;;;;;;;3.02;91.12;99817.25;4851083;29;20035;-84
2022/01/22 00:57:05;;;;;;;1.70;1.60;;;;;;;3.15;90.45;99845.66;4867544;29;20176;-84
2022/01/22 00:59:31;;;;;;;1.63;1.52;;;;;;;3.20;90.92;99858.34;4871357;29;20037;-83
2022/01/22 01:01:57;;;;;;;2.22;1.90;;;;;;;3.20;91.00;99860.97;4884585;29;20029;-83
2022/01/22 01:04:22;;;;;;;2.08;1.73;;;;;;;3.22;90.86;99853.69;4883247;29;20032;-83
2022/01/22 01:06:48;;;;;;;2.30;1.90;;;;;;;3.22;91.10;99858.97;4852071;29;20040;-86
2022/01/22 01:09:14;;;;;;;2.20;1.65;;;;;;;3.23;91.14;99856.19;4851902;29;20040;-85
2022/01/22 01:11:46;;;;;;;2.03;1.88;;;;;;;3.22;90.63;99853.69;4868557;29;20040;-86
2022/01/22 01:14:17;;;;;;;1.50;1.40;;;;;;;3.23;91.43;99865.91;4868571;29;20059;-85
2022/01/22 01:16:44;;;;;;;2.28;2.08;;;;;;;3.10;91.21;99844.56;4883770;29;20111;-86
2022/01/22 01:35:20;;;;;;;2.75;1.90;;;;;;;3.24;90.84;99870.16;4900635;29;20063;-84
2022/01/22 01:37:46;;;;;;;1.63;1.52;;;;;;;3.25;91.23;99871.81;4882763;29;20123;-83
2022/01/22 01:40:17;;;;;;;2.03;1.90;;;;;;;3.26;91.30;99876.09;4880064;29;20099;-84
2022/01/22 01:42:50;;;;;;;1.15;1.05;;;;;;;3.26;90.96;99873.44;4850927;29;20033;-84
2022/01/22 01:45:15;;;;;;;1.60;1.50;;;;;;;3.25;91.36;99877.09;4870285;29;20036;-84
2022/01/22 01:47:44;;;;;;;1.52;1.42;;;;;;;3.26;91.27;99876.09;4855073;29;20043;-84
2022/01/22 01:50:09;;;;;;;2.08;1.50;;;;;;;3.16;91.35;99849.97;4867521;29;20021;-84
2022/01/22 01:52:49;;;;;;;1.25;1.15;;;;;;;3.24;90.80;99855.16;4870943;29;20454;-85
2022/01/22 01:55:22;;;;;;;1.83;1.30;;;;;;;3.17;91.08;99841.03;4884838;29;20398;-85
2022/01/22 01:57:48;;;;;;;1.20;1.10;;;;;;;3.19;90.93;99848.78;4884254;29;20036;-85
2022/01/22 02:00:22;;;;;;;1.48;1.38;;;;;;;3.27;91.12;99851.34;4884323;29;20030;-85
2022/01/22 02:02:49;;;;;;;1.50;1.40;;;;;;;3.27;91.17;99859.28;4868445;29;20032;-85
2022/01/22 02:05:16;;;;;;;2.90;1.40;;;;;;;3.27;91.34;99869.81;4884372;29;20037;-85
2022/01/22 02:07:44;;;;;;;1.67;1.58;;;;;;;3.27;91.38;99869.81;4868183;29;20047;-85
2022/01/22 02:10:14;;;;;;;1.25;1.15;;;;;;;3.18;91.68;99849.78;4883200;29;20032;-85
2022/01/22 02:23:40;;;;;;;1.20;1.10;;;;;;;3.25;91.34;99872.66;4886018;29;20040;-85
2022/01/22 02:26:08;;;;;;;1.60;1.50;;;;;;;3.28;91.40;99874.09;4862374;29;20129;-86
2022/01/22 02:28:34;;;;;;;1.50;1.33;;;;;;;3.21;91.51;99865.25;4854994;29;20036;-86
2022/01/22 02:31:10;;;;;;;1.25;1.17;;;;;;;3.24;91.33;99875.44;4867008;29;20047;-86
2022/01/22 02:33:54;;;;;;;1.35;1.25;;;;;;;3.28;91.21;99869.63;4882944;29;20033;-86
2022/01/22 02:36:25;;;;;;;1.65;1.35;;;;;;;3.28;91.67;99863.53;4878440;29;20061;-87
2022/01/22 02:38:58;;;;;;;1.00;0.95;;;;;;;3.04;91.67;99824.97;4884217;29;20033;-85
2022/01/22 02:41:25;;;;;;;1.40;1.30;;;;;;;3.28;91.36;99853.81;4867756;29;20031;-83
2022/01/22 02:43:53;;;;;;;1.30;1.20;;;;;;;3.28;91.53;99864.38;4864385;29;20064;-83
2022/01/22 02:46:21;;;;;;;1.70;1.20;;;;;;;3.20;91.31;99848.59;4884637;29;20108;-85
2022/01/22 02:48:47;;;;;;;1.38;1.27;;;;;;;3.30;91.49;99857.09;4882163;29;20203;-84
2022/01/22 02:51:12;;;;;;;1.15;1.10;;;;;;;3.18;91.69;99834.78;4882718;29;20123;-83
2022/01/22 02:53:38;;;;;;;1.58;1.33;;;;;;;3.29;92.38;99860.75;4851834;29;20084;-84
2022/01/22 02:56:04;;;;;;;1.17;1.08;;;;;;;3.31;91.49;99866.66;4867177;29;20083;-83
2022/01/22 02:58:29;;;;;;;1.52;1.42;;;;;;;3.31;91.62;99863.19;4866631;29;20132;-83
2022/01/22 03:00:55;;;;;;;0.90;0.90;;;;;;;3.30;91.45;99877.41;4863195;29;20030;-83
2022/01/22 03:03:21;;;;;;;1.33;1.23;;;;;;;3.31;91.66;99860.56;4866603;29;20033;-83
2022/01/22 03:05:46;;;;;;;1.33;1.23;;;;;;;3.31;91.51;99860.56;4849565;29;20036;-84
2022/01/22 03:08:13;;;;;;;1.42;1.27;;;;;;;3.31;91.34;99863.19;4864555;29;20041;-84
2022/01/22 03:10:39;;;;;;;1.20;1.10;;;;;;;3.32;91.59;99878.03;4851803;29;20033;-84
2022/01/22 03:20:44;;;;;;;1.30;1.20;;;;;;;3.25;91.38;99871.81;4897849;29;20093;-83
2022/01/22 03:28:52;;;;;;;1.23;1.13;;;;;;;3.31;91.27;99887.75;4865234;29;20052;-87
2022/01/22 03:31:18;;;;;;;1.02;1.02;;;;;;;3.31;91.40;99890.41;4866514;29;20040;-87
2022/01/22 03:33:44;;;;;;;1.40;1.30;;;;;;;3.17;91.52;99867.41;4864585;29;20032;-83
2022/01/22 03:36:11;;;;;;;1.08;0.90;;;;;;;3.01;91.74;99841.97;4861900;29;20041;-87
2022/01/22 03:38:36;;;;;;;1.08;1.02;;;;;;;3.32;91.79;99891.22;4861518;29;20137;-86
2022/01/22 03:41:02;;;;;;;2.67;1.10;;;;;;;3.33;91.60;99901.59;4845991;29;20128;-86
2022/01/22 03:43:28;;;;;;;1.30;1.20;;;;;;;3.14;91.74;99859.88;4846183;29;20057;-86
2022/01/22 03:45:53;;;;;;;1.80;1.70;;;;;;;3.36;91.26;99895.97;4859964;29;20033;-86
2022/01/22 03:48:18;;;;;;;0.77;0.77;;;;;;;3.35;91.35;99901.41;4849214;29;20092;-85
2022/01/22 03:50:45;;;;;;;0.77;0.77;;;;;;;3.36;91.56;99890.69;4864534;29;20478;-86
2022/01/22 03:53:11;;;;;;;0.65;0.65;;;;;;;3.37;91.64;99892.31;4864458;29;20132;-86
2022/01/22 03:58:21;;;;;;;0.80;0.80;;;;;;;3.36;91.47;99901.25;4869470;29;20128;-87
2022/01/22 04:00:49;;;;;;;1.02;0.80;;;;;;;3.31;91.55;99884.28;4879761;29;20017;-86
2022/01/22 04:06:02;;;;;;;0.70;0.70;;;;;;;3.37;91.49;99902.88;4880690;29;20096;-86
2022/01/22 04:08:28;;;;;;;1.10;0.70;;;;;;;3.27;91.30;99896.19;4854388;29;20040;-86
2022/01/22 04:10:53;;;;;;;0.88;0.77;;;;;;;3.37;91.46;99915.25;4852640;29;20029;-86
2022/01/22 04:13:22;;;;;;;0.88;0.88;;;;;;;3.36;91.71;99917.09;4852401;29;20036;-86
2022/01/22 04:15:49;;;;;;;0.93;0.93;;;;;;;3.09;91.85;99861.38;4853223;29;20040;-85
2022/01/22 04:26:42;;;;;;;0.90;0.90;;;;;;;3.39;91.86;99926.44;4873045;29;20132;-85
2022/01/22 04:29:07;;;;;;;0.70;0.70;;;;;;;3.38;91.87;99928.28;4869937;29;20087;-86
2022/01/22 04:31:36;;;;;;;0.80;0.80;;;;;;;3.38;91.81;99917.72;4883367;29;20541;-86
2022/01/22 04:34:01;;;;;;;0.88;0.85;;;;;;;3.35;91.64;99906.69;4867951;29;20032;-86
2022/01/22 04:36:28;;;;;;;1.23;1.13;;;;;;;3.41;91.88;99925.28;4868044;29;20044;-85
2022/01/22 04:38:53;;;;;;;0.77;0.77;;;;;;;3.43;91.50;99933.84;4867754;29;20389;-86
2022/01/22 04:41:20;;;;;;;0.90;0.73;;;;;;;3.44;92.02;99913.56;4855324;29;20036;-83
2022/01/22 04:43:46;;;;;;;1.25;1.20;;;;;;;3.34;91.45;99907.69;4866610;29;20036;-82
2022/01/22 04:46:33;;;;;;;3.25;0.88;;;;;;;3.43;91.89;99914.56;4867730;29;20453;-82
2022/01/22 04:56:59;;;;;;;0.80;0.80;;;;;;;3.21;91.83;99884.53;4886803;29;20039;-83
2022/01/22 04:59:24;;;;;;;0.93;0.88;;;;;;;3.44;92.00;99911.75;4858234;29;20048;-83
2022/01/22 05:01:49;;;;;;;0.90;0.90;;;;;;;3.45;91.86;99912.56;4846322;29;20075;-83
2022/01/22 05:04:15;;;;;;;4.45;0.80;;;;;;;3.47;91.53;99915.84;4866424;29;20044;-83
2022/01/22 05:06:40;;;;;;;0.60;0.60;;;;;;;3.39;91.54;99911.44;4879435;29;20040;-84
2022/01/22 05:09:06;;;;;;;0.93;0.68;;;;;;;3.46;91.64;99930.03;4883886;29;20032;-85
2022/01/22 05:11:31;;;;;;;0.98;0.70;;;;;;;3.39;91.88;99911.44;4866943;29;20629;-85
2022/01/22 05:13:58;;;;;;;0.90;0.90;;;;;;;3.48;91.80;99928.84;4858599;29;20045;-86
2022/01/22 05:16:24;;;;;;;0.70;0.70;;;;;;;3.49;91.62;99935.78;4888342;29;20123;-84
2022/01/22 05:19:01;;;;;;;1.23;0.88;;;;;;;3.51;91.69;99935.59;4879579;29;20406;-83
2022/01/22 05:21:28;;;;;;;2.88;1.20;;;;;;;3.50;92.12;99939.22;4871431;29;20383;-84
2022/01/22 05:23:56;;;;;;;1.45;1.08;;;;;;;3.52;92.10;99939.88;4871004;29;20041;-86
2022/01/22 05:30:01;;;;;;;0.98;0.95;;;;;;;3.53;91.57;99936.25;4884064;29;20040;-85
2022/01/22 05:37:27;;;;;;;1.13;1.02;;;;;;;3.51;91.50;99948.81;4869974;29;20095;-86
2022/01/22 05:39:52;;;;;;;2.42;1.10;;;;;;;3.52;91.53;99945.97;4865890;29;20061;-86
2022/01/22 05:42:18;;;;;;;1.83;0.98;;;;;;;3.53;91.63;99954.72;4866195;29;20465;-86
2022/01/22 05:44:43;;;;;;;0.93;0.88;;;;;;;3.53;92.06;99947.63;4850900;29;20037;-86
2022/01/22 05:47:09;;;;;;;1.25;1.15;;;;;;;3.55;91.72;99958.00;4866185;29;20069;-86
2022/01/22 05:49:39;;;;;;;1.50;1.20;;;;;;;3.55;91.82;99960.66;4866473;29;20036;-86
2022/01/22 05:52:07;;;;;;;2.60;0.90;;;;;;;3.54;92.04;99954.53;4866843;29;20036;-86
2022/01/22 05:59:58;;;;;;;0.75;0.75;;;;;;;3.51;91.47;99949.63;4898197;29;20028;-85
2022/01/22 06:02:24;;;;;;;2.28;0.80;;;;;;;3.57;91.76;99950.72;4865983;29;20037;-86
2022/01/22 06:04:50;;;;;;;1.10;1.00;;;;;;;3.54;91.77;99945.78;4880188;29;20029;-82
2022/01/22 06:07:15;;;;;;;1.05;0.95;;;;;;;3.58;92.03;99960.31;4880574;29;20057;-83
2022/01/22 06:10:03;;;;;;;0.80;0.80;;;;;;;3.59;91.84;99962.75;4867179;29;20398;-83
2022/01/22 06:12:45;;;;;;;3.50;1.20;;;;;;;3.54;91.68;99946.63;4864260;29;20048;-84
2022/01/22 06:15:11;;;;;;;0.80;0.80;;;;;;;3.55;92.09;99950.09;4856626;29;20112;-82
2022/01/22 06:17:37;;;;;;;1.00;0.98;;;;;;;3.60;92.20;99969.66;4854827;29;20032;-82
2022/01/22 06:20:04;;;;;;;0.90;0.90;;;;;;;3.53;91.63;99962.63;4860019;29;20573;-83
2022/01/22 06:22:30;;;;;;;1.05;1.02;;;;;;;3.58;91.66;99962.94;4881615;29;20112;-84
2022/01/22 06:24:58;;;;;;;0.63;0.63;;;;;;;3.61;91.82;99965.22;4862120;29;20537;-83
2022/01/22 06:27:23;;;;;;;2.00;1.10;;;;;;;3.63;92.42;99984.34;4865145;29;20047;-83
2022/01/22 06:29:49;;;;;;;1.10;0.90;;;;;;;3.63;92.01;99984.34;4864744;29;20434;-83
2022/01/22 06:32:14;;;;;;;2.08;0.75;;;;;;;3.65;92.17;99987.63;4849635;29;20045;-83
2022/01/22 06:34:40;;;;;;;1.25;1.15;;;;;;;3.64;92.00;99976.25;4851367;29;20036;-83
2022/01/22 06:37:06;;;;;;;0.88;0.88;;;;;;;3.63;92.09;99971.97;4849955;29;20028;-86
2022/01/22 06:39:41;;;;;;;0.60;0.60;;;;;;;3.66;91.77;99976.06;4865203;29;20064;-86
2022/01/22 06:42:07;;;;;;;1.00;0.90;;;;;;;3.60;91.63;99963.59;4852300;29;20121;-86
2022/01/22 06:44:34;;;;;;;0.90;0.90;;;;;;;3.62;92.05;99972.97;4866162;29;20057;-86
2022/01/22 06:47:00;;;;;;;0.98;0.98;;;;;;;3.66;91.75;99979.53;4847398;29;20131;-85
2022/01/22 06:49:26;;;;;;;0.88;0.77;;;;;;;3.67;92.16;99989.09;4846728;29;20033;-85
2022/01/22 06:51:54;;;;;;;1.58;1.48;;;;;;;3.68;91.81;99998.66;4877357;29;20033;-86
2022/01/22 06:54:21;;;;;;;0.70;0.70;;;;;;;3.68;92.28;100003.94;4862493;29;20033;-86
2022/01/22 06:56:47;;;;;;;0.95;0.90;;;;;;;3.69;92.45;100008.22;4862287;29;20128;-86
2022/01/22 06:59:13;;;;;;;0.60;0.60;;;;;;;3.70;92.11;100009.03;4861884;29;20108;-86
2022/01/22 07:01:39;;;;;;;0.75;0.68;;;;;;;3.70;92.17;100019.59;4850298;29;20037;-87
2022/01/22 07:04:17;;;;;;;0.77;0.77;;;;;;;3.12;91.52;99941.00;4899358;29;20032;-84
2022/01/22 07:06:42;;;;;;;1.67;1.00;;;;;;;3.65;92.33;100011.38;4884247;29;20036;-85
2022/01/22 07:09:08;;;;;;;1.38;0.70;;;;;;;3.72;92.09;100038.72;4864710;29;20172;-84
2022/01/22 07:11:33;;;;;;;0.82;0.82;;;;;;;3.68;91.98;100040.06;4851775;29;20036;-84
2022/01/22 07:13:58;;;;;;;1.10;1.00;;;;;;;3.55;91.70;100002.88;4847749;29;20063;-86
2022/01/22 07:16:30;;;;;;;3.00;1.10;;;;;;;3.75;91.63;100051.59;4867121;29;20108;-83
2022/01/22 07:19:00;;;;;;;1.33;1.27;;;;;;;3.31;91.42;99987.19;4864959;29;20033;-85
2022/01/22 07:21:30;;;;;;;1.88;0.95;;;;;;;3.58;91.78;100016.53;4852201;29;20032;-83
2022/01/22 07:26:21;;;;;;;0.80;0.80;;;;;;;3.76;91.76;100050.56;4881743;29;20521;-83
2022/01/22 07:28:47;;;;;;;0.70;0.70;;;;;;;3.74;92.23;100056.03;4864725;29;20043;-85
2022/01/22 07:31:13;;;;;;;0.73;0.73;;;;;;;3.77;91.73;100046.94;4876546;29;20036;-82
2022/01/22 07:33:38;;;;;;;0.65;0.63;;;;;;;3.79;91.88;100051.06;4865246;29;20091;-85
2022/01/22 07:36:07;;;;;;;1.85;0.98;;;;;;;3.78;91.58;100057.31;4850716;29;20036;-86
2022/01/22 07:38:38;;;;;;;0.60;0.60;;;;;;;3.79;92.22;100061.63;4865145;29;20067;-86
2022/01/22 07:41:04;;;;;;;0.70;0.70;;;;;;;3.61;91.48;100029.38;4866415;29;20040;-82
2022/01/22 07:43:29;;;;;;;1.25;0.77;;;;;;;3.79;91.88;100060.78;4882224;29;20028;-83
2022/01/22 07:45:55;;;;;;;1.10;0.80;;;;;;;3.74;91.56;100052.56;4854838;29;20129;-83
2022/01/22 07:48:23;;;;;;;1.27;1.05;;;;;;;3.77;92.07;100058.34;4870986;29;20028;-83
2022/01/22 07:50:49;;;;;;;0.98;0.98;;;;;;;3.79;92.30;100063.44;4885317;29;20497;-83
2022/01/22 07:53:14;;;;;;;0.60;0.60;;;;;;;3.80;92.31;100065.88;4870169;29;20045;-83
2022/01/22 07:58:14;;;;;;;2.33;0.80;;;;;;;3.81;92.04;100069.34;4912506;29;20426;-90
2022/01/22 08:00:39;;;;;;;0.60;0.60;;;;;;;3.84;91.82;100065.56;4879968;29;20036;-91
2022/01/22 08:03:06;;;;;;;3.03;0.80;;;;;;;3.84;92.21;100065.56;4879460;29;20044;-88
2022/01/22 08:05:32;;;;;;;0.93;0.93;;;;;;;3.85;91.99;100062.72;4889870;29;20504;-87
2022/01/22 08:07:58;;;;;;;0.77;0.77;;;;;;;3.84;92.04;100074.31;4867043;29;20047;-88
2022/01/22 08:10:23;;;;;;;1.77;0.93;;;;;;;3.85;92.26;100075.09;4865927;29;20025;-88
2022/01/22 08:12:50;;;;;;;1.08;0.88;;;;;;;3.87;92.25;100067.84;4858400;29;20036;-87
2022/01/22 08:15:21;;;;;;;1.17;1.15;;;;;;;3.87;91.95;100073.94;4874070;29;20095;-88
2022/01/22 08:17:50;;;;;;;1.08;1.00;;;;;;;3.86;92.21;100067.03;4884007;29;20040;-88
2022/01/22 08:20:21;;;;;;;2.35;0.90;;;;;;;3.83;92.07;100059.44;4867140;29;20040;-88
2022/01/22 08:22:48;;;;;;;1.17;1.08;;;;;;;3.85;92.14;100067.19;4879754;29;20044;-87
2022/01/22 08:25:14;;;;;;;1.10;1.10;;;;;;;3.89;92.68;100071.13;4865587;29;20115;-85
2022/01/22 08:30:30;;;;;;;0.90;0.88;;;;;;;3.89;92.66;100079.84;4882901;29;20040;-89
2022/01/22 08:38:08;;;;;;;1.58;1.05;;;;;;;3.91;92.94;100067.28;4883307;29;20049;-91
2022/01/22 08:40:34;;;;;;;1.45;1.35;;;;;;;3.93;93.04;100077.72;4860052;29;20037;-89
2022/01/22 08:42:59;;;;;;;2.17;1.75;;;;;;;3.83;92.88;100054.16;4881154;29;20513;-88
2022/01/22 08:45:25;;;;;;;1.38;1.30;;;;;;;3.95;93.17;100078.34;4858794;29;20025;-86
2022/01/22 08:47:51;;;;;;;4.18;1.27;;;;;;;3.95;93.45;100071.25;4866838;29;20048;-89
2022/01/22 08:50:19;;;;;;;3.30;1.30;;;;;;;3.93;93.32;100053.94;4875859;29;20410;-89
2022/01/22 08:52:45;;;;;;;3.08;1.75;;;;;;;3.99;93.76;100071.72;4884533;29;20371;-88
2022/01/22 08:55:10;;;;;;;2.38;1.48;;;;;;;4.00;93.20;100074.16;4865492;29;20044;-88
2022/01/22 08:57:37;;;;;;;2.72;1.50;;;;;;;4.00;93.71;100070.72;4882375;29;20025;-86
2022/01/22 09:00:05;;;;;;;1.75;1.10;;;;;;;3.93;93.61;100075.91;4882164;29;20032;-86
2022/01/22 09:02:31;;;;;;;1.85;1.23;;;;;;;3.96;93.36;100064.97;4883138;29;20029;-88
2022/01/22 09:04:56;;;;;;;1.50;1.20;;;;;;;4.05;93.23;100092.97;4864635;29;20390;-88
2022/01/22 09:07:22;;;;;;;1.58;1.42;;;;;;;4.04;93.71;100082.59;4864691;29;20092;-86
2022/01/22 09:09:48;;;;;;;3.15;1.63;;;;;;;4.08;93.24;100082.06;4864857;29;20032;-87
2022/01/22 09:12:15;;;;;;;1.40;1.30;;;;;;;4.06;93.29;100097.25;4865461;29;20025;-88
2022/01/22 09:14:41;;;;;;;1.83;1.48;;;;;;;3.94;93.98;100076.69;4866425;29;20025;-86
2022/01/22 09:17:07;;;;;;;2.78;1.50;;;;;;;3.98;93.47;100078.81;4864860;29;20117;-88
2022/01/22 09:19:34;;;;;;;1.58;1.38;;;;;;;4.12;93.46;100099.19;4864699;29;20021;-86
2022/01/22 09:22:03;;;;;;;1.30;1.20;;;;;;;4.13;93.70;100106.09;4864526;29;20025;-90
2022/01/22 09:24:35;;;;;;;1.50;1.40;;;;;;;4.14;93.71;100106.94;4889282;29;20060;-86
2022/01/22 09:27:05;;;;;;;1.52;1.42;;;;;;;4.11;93.24;100105.47;4883734;29;20029;-86
2022/01/22 09:29:31;;;;;;;1.92;1.15;;;;;;;4.04;93.64;100082.59;4880076;29;20029;-87
2022/01/22 09:31:56;;;;;;;1.30;1.10;;;;;;;4.18;93.43;100111.69;4865810;29;20505;-89
2022/01/22 09:34:22;;;;;;;1.65;1.55;;;;;;;4.21;93.67;100115.81;4867555;29;20036;-87
2022/01/22 09:36:49;;;;;;;1.52;1.20;;;;;;;4.21;93.26;100121.91;4882871;29;20040;-87
2022/01/22 09:39:15;;;;;;;2.78;1.10;;;;;;;4.22;93.48;100122.72;4866793;29;20511;-87
2022/01/22 09:41:41;;;;;;;1.10;1.00;;;;;;;4.21;93.94;100126.38;4896918;29;20401;-87
2022/01/22 09:44:07;;;;;;;1.45;1.25;;;;;;;4.23;93.41;100119.91;4871833;29;20033;-86
2022/01/22 09:46:32;;;;;;;1.15;1.02;;;;;;;4.23;93.47;100121.72;4858145;29;20040;-84
2022/01/22 09:48:58;;;;;;;1.48;1.02;;;;;;;4.22;93.49;100130.66;4891859;29;20037;-82
2022/01/22 09:51:24;;;;;;;1.23;1.13;;;;;;;4.19;93.55;100128.38;4859368;29;20473;-84
2022/01/22 09:53:50;;;;;;;1.27;1.00;;;;;;;4.22;94.00;100142.03;4874804;29;20088;-85
2022/01/22 09:56:23;;;;;;;1.50;1.27;;;;;;;4.23;93.80;100148.97;4875812;29;20494;-88
2022/01/22 09:58:58;;;;;;;2.00;1.00;;;;;;;4.25;93.88;100143.50;4871133;29;20064;-86
2022/01/22 10:01:31;;;;;;;;;;;;;;;4.22;93.69;100144.69;4863720;29;20064;-85
2022/01/22 10:04:02;;;;;;;1.33;1.15;;;;;;;4.13;93.74;100124.59;4881427;29;19915;-86
2022/01/22 10:06:32;;;;;;;2.17;1.15;;;;;;;4.20;93.93;100136.13;4877867;29;20641;-89
2022/01/22 10:09:11;;;;;;;1.20;1.08;;;;;;;4.24;93.67;100141.84;4863231;29;20534;-86
2022/01/22 10:11:37;;;;;;;3.30;1.45;;;;;;;4.25;93.75;100148.81;4862213;29;20096;-86
2022/01/22 10:14:03;;;;;;;7.35;1.58;;;;;;;4.28;93.83;100143.19;4878196;29;20116;-87
2022/01/22 10:16:31;;;;;;;2.80;2.03;;;;;;;4.33;93.72;100148.72;4876619;29;20024;-88
2022/01/22 10:19:22;;;;;;;3.60;2.30;;;;;;;4.33;93.90;100149.56;4864728;29;20032;-88
2022/01/22 10:21:55;;;;;;;2.88;2.13;;;;;;;4.39;94.29;100156.78;4872862;29;20044;-84
2022/01/22 10:24:47;;;;;;;4.18;3.13;;;;;;;4.37;94.37;100148.22;4869457;29;20164;-84
2022/01/22 10:30:13;;;;;;;4.65;3.63;;;;;;;4.53;94.05;100156.03;4881244;29;20036;-86
2022/01/22 10:35:24;;;;;;;5.30;3.88;;;;;;;4.50;93.83;100151.06;4875051;29;20035;-84
2022/01/22 10:37:55;;;;;;;4.38;3.70;;;;;;;4.58;93.78;100158.13;4875161;29;20582;-86
2022/01/22 10:40:36;;;;;;;4.47;3.10;;;;;;;4.67;93.73;100166.81;4893159;29;20017;-84
2022/01/22 10:48:58;;;;;;;3.58;2.70;;;;;;;4.76;93.72;100179.78;4883149;29;20043;-85
2022/01/22 10:51:27;;;;;;;4.25;3.08;;;;;;;4.77;93.31;100168.22;4882756;29;20031;-84
2022/01/22 10:53:59;;;;;;;3.60;3.13;;;;;;;4.82;92.85;100175.59;4864612;29;20122;-85
2022/01/22 10:56:30;;;;;;;4.70;2.80;;;;;;;4.81;93.33;100166.84;4867273;29;20035;-86
2022/01/22 10:59:22;;;;;;;3.20;2.72;;;;;;;4.89;92.79;100187.13;4882084;29;20025;-85
2022/01/22 11:02:00;;;;;;;2.53;2.28;;;;;;;4.90;92.12;100192.22;4877522;29;20502;-84
2022/01/22 11:04:37;;;;;;;3.20;2.55;;;;;;;4.95;92.75;100200.47;4893115;29;20056;-84
2022/01/22 11:07:07;;;;;;;4.40;2.67;;;;;;;4.97;92.01;100202.91;4885685;29;20028;-85
2022/01/22 11:09:34;;;;;;;3.25;2.63;;;;;;;4.99;92.38;100203.56;4874317;29;20029;-86
2022/01/22 11:12:18;;;;;;;4.78;2.47;;;;;;;4.99;92.29;100191.16;4882777;29;20027;-83
2022/01/22 11:14:46;;;;;;;2.90;2.67;;;;;;;4.94;91.88;100193.50;4876919;29;20021;-85
2022/01/22 11:17:15;;;;;;;2.60;2.40;;;;;;;5.02;91.23;100205.84;4883194;29;20168;-85
2022/01/22 11:19:49;;;;;;;3.03;2.30;;;;;;;5.02;91.62;100201.38;4884761;29;20045;-85
2022/01/22 11:22:19;;;;;;;2.47;1.92;;;;;;;5.05;90.71;100203.66;4886472;29;20496;-84
2022/01/22 11:24:48;;;;;;;2.50;2.10;;;;;;;5.06;91.49;100201.84;4876101;29;20118;-85
2022/01/22 11:27:16;;;;;;;2.95;2.25;;;;;;;5.11;90.91;100207.44;4881744;29;20033;-85
2022/01/22 11:29:51;;;;;;;3.10;2.30;;;;;;;5.11;90.33;100195.00;4887900;29;20067;-86
2022/01/22 11:32:21;;;;;;;2.92;2.25;;;;;;;5.03;90.65;100189.78;4887139;29;20036;-85
2022/01/22 11:34:50;;;;;;;2.83;2.53;;;;;;;5.15;90.21;100200.78;4889034;29;20044;-85
2022/01/22 11:37:19;;;;;;;2.30;1.95;;;;;;;5.12;89.99;100195.81;4901524;29;20065;-85
2022/01/22 11:39:46;;;;;;;2.10;2.00;;;;;;;5.17;90.03;100204.88;4890157;29;20127;-85
2022/01/22 11:42:11;;;;;;;4.25;2.33;;;;;;;5.21;90.66;100203.50;4888133;29;20119;-85
2022/01/22 11:44:47;;;;;;;2.97;2.60;;;;;;;5.23;90.11;100198.88;4900073;29;20060;-86
2022/01/22 11:47:22;;;;;;;2.42;1.73;;;;;;;5.24;89.25;100199.69;4870560;29;20437;-85
2022/01/22 11:50:09;;;;;;;2.78;2.20;;;;;;;5.25;88.97;100196.03;4879225;29;20084;-85
2022/01/22 11:52:38;;;;;;;2.42;1.90;;;;;;;5.27;89.03;100200.13;4882747;29;20409;-85
2022/01/22 11:55:16;;;;;;;2.53;2.22;;;;;;;5.29;89.39;100194.66;4879674;29;20033;-85
2022/01/22 11:57:45;;;;;;;2.65;2.45;;;;;;;5.30;89.70;100193.66;4887050;29;20068;-84
2022/01/22 12:00:29;;;;;;;3.25;2.67;;;;;;;5.25;88.86;100190.72;4879802;29;20072;-86
2022/01/22 12:03:18;;;;;;;2.78;2.47;;;;;;;5.29;89.24;100198.13;4888440;29;20046;-87
2022/01/22 12:06:04;;;;;;;5.65;3.20;;;;;;;5.32;89.75;100202.25;4890556;29;20032;-86
2022/01/22 12:08:50;;;;;;;4.28;3.00;;;;;;;5.33;89.03;100202.06;4878957;29;20066;-85
2022/01/22 12:14:50;;;;;;;3.00;2.70;;;;;;;5.33;89.40;100206.53;4895244;29;20561;-84
2022/01/22 12:17:35;;;;;;;3.10;2.40;;;;;;;5.39;89.32;100205.00;4892359;29;20115;-86
2022/01/22 12:20:17;;;;;;;4.27;2.33;;;;;;;5.42;90.05;100200.13;4881520;29;20024;-86
2022/01/22 12:22:44;;;;;;;3.25;2.03;;;;;;;5.45;89.05;100197.13;4881025;29;20417;-84
2022/01/22 12:25:16;;;;;;;2.33;1.70;;;;;;;5.47;89.61;100197.78;4884334;29;20482;-85
2022/01/22 12:27:48;;;;;;;2.33;2.10;;;;;;;5.50;89.47;100188.66;4882403;29;20522;-84
2022/01/22 12:30:17;;;;;;;1.65;1.55;;;;;;;5.54;89.51;100192.56;4876342;29;20024;-85
2022/01/22 12:32:50;;;;;;;1.75;1.48;;;;;;;5.55;89.72;100187.09;4868950;29;20033;-85
2022/01/22 12:35:35;;;;;;;1.38;1.27;;;;;;;5.60;89.71;100184.72;4850644;29;20093;-84
2022/01/22 12:38:35;;;;;;;1.75;1.65;;;;;;;5.59;89.85;100182.25;4873979;29;20060;-84
2022/01/22 12:44:30;;;;;;;2.58;1.55;;;;;;;5.67;89.38;100179.50;4897112;29;20107;-86
2022/01/22 12:47:12;;;;;;;1.25;1.15;;;;;;;5.70;89.68;100185.25;4876939;29;20033;-84
2022/01/22 12:49:39;;;;;;;1.40;1.30;;;;;;;5.67;88.54;100177.69;4893396;29;20017;-85
2022/01/22 12:52:09;;;;;;;1.52;1.40;;;;;;;5.76;89.35;100189.00;4881674;29;20068;-86
2022/01/22 12:54:39;;;;;;;2.80;1.10;;;;;;;5.79;88.61;100186.78;4885832;29;20048;-85
2022/01/22 12:57:06;;;;;;;1.48;1.20;;;;;;;5.81;88.93;100187.44;4871929;29;20045;-85
2022/01/22 12:59:34;;;;;;;1.58;1.30;;;;;;;5.83;88.63;100177.47;4867312;29;20187;-85
2022/01/22 13:02:00;;;;;;;1.13;1.10;;;;;;;5.85;88.16;100186.06;4869593;29;20040;-85
2022/01/22 13:04:26;;;;;;;1.27;1.17;;;;;;;5.85;87.62;100188.72;4887103;29;20032;-85
2022/01/22 13:06:53;;;;;;;1.60;1.10;;;;;;;5.88;88.36;100190.19;4882174;29;20047;-86
2022/01/22 13:09:19;;;;;;;1.67;1.55;;;;;;;5.85;88.28;100191.38;4879369;29;20024;-84
2022/01/22 13:11:49;;;;;;;6.63;1.25;;;;;;;5.83;88.45;100200.50;4868063;29;20080;-84
2022/01/22 13:14:18;;;;;;;4.05;1.27;;;;;;;5.82;88.09;100197.03;4866163;29;20029;-84
2022/01/22 13:16:50;;;;;;;3.03;1.70;;;;;;;5.79;88.98;100200.03;4896558;29;20470;-84
2022/01/22 13:19:17;;;;;;;1.98;1.77;;;;;;;5.78;89.46;100209.00;4859058;29;20490;-84
2022/01/22 13:21:59;;;;;;;1.70;1.60;;;;;;;5.74;88.59;100204.25;4877198;29;20036;-84
2022/01/22 13:24:27;;;;;;;5.30;1.98;;;;;;;5.73;89.25;100202.59;4889093;29;20035;-84
2022/01/22 13:27:08;;;;;;;3.80;1.85;;;;;;;5.71;89.65;100196.66;4866647;29;20093;-84
2022/01/22 13:29:42;;;;;;;6.25;2.08;;;;;;;5.68;88.88;100199.72;4882013;29;20544;-85
2022/01/22 13:49:26;;;;;;;3.72;3.20;;;;;;;5.48;89.99;100217.97;4866069;29;20043;-84
2022/01/22 13:52:01;;;;;;;2.05;1.95;;;;;;;5.46;89.81;100213.84;4863255;29;20033;-86